sensor_id;sensor_type;location;lat;lon;timestamp;pressure;altitude;pressure_sealevel;temperature;humidity
46394;BME280;32099;53.588;10.176;2024-02-14T00:01:25;101256.34;;;5.65;89.50
46394;BME280;32099;53.588;10.176;2024-02-14T00:03:50;101255.94;;;5.60;89.67
46394;BME280;32099;53.588;10.176;2024-02-14T00:06:16;101249.66;;;5.60;90.32
46394;BME280;32099;53.588;10.176;2024-02-14T00:08:42;101250.78;;;5.57;89.75
46394;BME280;32099;53.588;10.176;2024-02-14T00:11:08;101252.91;;;5.53;89.46
46394;BME280;32099;53.588;10.176;2024-02-14T00:13:33;101254.19;;;5.49;89.30
46394;BME280;32099;53.588;10.176;2024-02-14T00:15:59;101244.66;;;5.45;89.55
46394;BME280;32099;53.588;10.176;2024-02-14T00:18:27;101238.34;;;5.45;89.64
46394;BME280;32099;53.588;10.176;2024-02-14T00:20:53;101245.75;;;5.43;89.52
46394;BME280;32099;53.588;10.176;2024-02-14T00:23:19;101246.03;;;5.39;90.39
46394;BME280;32099;53.588;10.176;2024-02-14T00:25:45;101238.94;;;5.38;89.70
46394;BME280;32099;53.588;10.176;2024-02-14T00:28:10;101236.34;;;5.37;89.82
46394;BME280;32099;53.588;10.176;2024-02-14T00:30:36;101242.03;;;5.34;89.59
46394;BME280;32099;53.588;10.176;2024-02-14T00:33:02;101240.44;;;5.31;89.86
46394;BME280;32099;53.588;10.176;2024-02-14T00:35:30;101234.34;;;5.29;89.95
46394;BME280;32099;53.588;10.176;2024-02-14T00:37:56;101230.63;;;5.30;90.43
46394;BME280;32099;53.588;10.176;2024-02-14T00:40:21;101243.44;;;5.28;90.15
46394;BME280;32099;53.588;10.176;2024-02-14T00:42:47;101225.75;;;5.24;89.44
46394;BME280;32099;53.588;10.176;2024-02-14T00:45:13;101231.19;;;5.24;90.28
46394;BME280;32099;53.588;10.176;2024-02-14T00:47:39;101232.16;;;5.23;90.42
46394;BME280;32099;53.588;10.176;2024-02-14T00:50:05;101228.31;;;5.25;90.21
46394;BME280;32099;53.588;10.176;2024-02-14T00:52:34;101221.19;;;5.24;89.28
46394;BME280;32099;53.588;10.176;2024-02-14T00:55:00;101223.22;;;5.22;89.03
46394;BME280;32099;53.588;10.176;2024-02-14T00:57:26;101228.72;;;5.21;89.83
46394;BME280;32099;53.588;10.176;2024-02-14T00:59:52;101224.91;;;5.23;89.69
46394;BME280;32099;53.588;10.176;2024-02-14T01:02:18;101225.75;;;5.24;89.69
46394;BME280;32099;53.588;10.176;2024-02-14T01:04:44;101217.50;;;5.25;89.50
46394;BME280;32099;53.588;10.176;2024-02-14T01:07:09;101216.25;;;5.30;90.12
46394;BME280;32099;53.588;10.176;2024-02-14T01:09:38;101215.97;;;5.33;90.08
46394;BME280;32099;53.588;10.176;2024-02-14T01:12:04;101218.28;;;5.37;90.65
46394;BME280;32099;53.588;10.176;2024-02-14T01:14:30;101209.59;;;5.44;89.88
46394;BME280;32099;53.588;10.176;2024-02-14T01:16:56;101211.88;;;5.48;90.36
46394;BME280;32099;53.588;10.176;2024-02-14T01:19:22;101209.91;;;5.50;89.81
46394;BME280;32099;53.588;10.176;2024-02-14T01:21:49;101206.22;;;5.51;90.09
46394;BME280;32099;53.588;10.176;2024-02-14T01:24:18;101206.94;;;5.53;90.10
46394;BME280;32099;53.588;10.176;2024-02-14T01:26:50;101205.22;;;5.52;89.63
46394;BME280;32099;53.588;10.176;2024-02-14T01:29:18;101207.06;;;5.52;89.88
46394;BME280;32099;53.588;10.176;2024-02-14T01:31:44;101199.81;;;5.52;90.54
46394;BME280;32099;53.588;10.176;2024-02-14T01:34:10;101198.97;;;5.52;90.93
46394;BME280;32099;53.588;10.176;2024-02-14T01:36:41;101196.53;;;5.49;89.98
46394;BME280;32099;53.588;10.176;2024-02-14T01:39:07;101194.81;;;5.48;91.04
46394;BME280;32099;53.588;10.176;2024-02-14T01:41:36;101193.94;;;5.47;90.92
46394;BME280;32099;53.588;10.176;2024-02-14T01:44:05;101187.84;;;5.45;91.19
46394;BME280;32099;53.588;10.176;2024-02-14T01:46:32;101185.41;;;5.42;91.92
46394;BME280;32099;53.588;10.176;2024-02-14T01:48:58;101186.41;;;5.41;92.84
46394;BME280;32099;53.588;10.176;2024-02-14T01:51:27;101184.09;;;5.36;92.95
46394;BME280;32099;53.588;10.176;2024-02-14T01:53:55;101174.44;;;5.34;93.74
46394;BME280;32099;53.588;10.176;2024-02-14T01:56:22;101171.84;;;5.32;93.51
46394;BME280;32099;53.588;10.176;2024-02-14T01:58:48;101173.69;;;5.32;94.57
46394;BME280;32099;53.588;10.176;2024-02-14T02:01:23;101167.56;;;5.30;94.61
46394;BME280;32099;53.588;10.176;2024-02-14T02:03:51;101171.41;;;5.27;94.78
46394;BME280;32099;53.588;10.176;2024-02-14T02:06:20;101160.31;;;5.30;95.50
46394;BME280;32099;53.588;10.176;2024-02-14T02:08:48;101156.59;;;5.31;95.34
46394;BME280;32099;53.588;10.176;2024-02-14T02:11:14;101161.31;;;5.29;96.21
46394;BME280;32099;53.588;10.176;2024-02-14T02:13:40;101162.31;;;5.28;95.47
46394;BME280;32099;53.588;10.176;2024-02-14T02:16:09;101162.44;;;5.27;95.55
46394;BME280;32099;53.588;10.176;2024-02-14T02:18:37;101158.31;;;5.22;95.59
46394;BME280;32099;53.588;10.176;2024-02-14T02:21:05;101157.28;;;5.23;95.77
46394;BME280;32099;53.588;10.176;2024-02-14T02:23:34;101157.44;;;5.22;96.15
46394;BME280;32099;53.588;10.176;2024-02-14T02:26:08;101149.47;;;5.20;96.12
46394;BME280;32099;53.588;10.176;2024-02-14T02:28:38;101145.91;;;5.20;97.23
46394;BME280;32099;53.588;10.176;2024-02-14T02:31:04;101139.66;;;5.19;96.44
46394;BME280;32099;53.588;10.176;2024-02-14T02:33:30;101135.09;;;5.20;97.05
46394;BME280;32099;53.588;10.176;2024-02-14T02:35:57;101139.66;;;5.19;96.47
46394;BME280;32099;53.588;10.176;2024-02-14T02:38:23;101135.25;;;5.18;96.70
46394;BME280;32099;53.588;10.176;2024-02-14T02:40:52;101133.69;;;5.16;97.51
46394;BME280;32099;53.588;10.176;2024-02-14T02:43:19;101129.53;;;5.12;97.51
46394;BME280;32099;53.588;10.176;2024-02-14T02:45:46;101131.38;;;5.11;97.34
46394;BME280;32099;53.588;10.176;2024-02-14T02:48:14;101127.66;;;5.12;97.46
46394;BME280;32099;53.588;10.176;2024-02-14T02:50:46;101127.66;;;5.12;97.46
46394;BME280;32099;53.588;10.176;2024-02-14T02:53:15;101121.97;;;5.05;98.49
46394;BME280;32099;53.588;10.176;2024-02-14T02:55:41;101108.72;;;5.02;98.66
46394;BME280;32099;53.588;10.176;2024-02-14T02:58:13;101104.16;;;5.03;99.05
46394;BME280;32099;53.588;10.176;2024-02-14T03:00:43;101105.88;;;5.04;98.58
46394;BME280;32099;53.588;10.176;2024-02-14T03:03:22;101101.34;;;5.04;98.82
46394;BME280;32099;53.588;10.176;2024-02-14T03:05:48;101094.34;;;5.02;99.47
46394;BME280;32099;53.588;10.176;2024-02-14T03:08:14;101090.81;;;5.01;99.88
46394;BME280;32099;53.588;10.176;2024-02-14T03:10:40;101086.53;;;4.99;99.80
46394;BME280;32099;53.588;10.176;2024-02-14T03:13:09;101087.94;;;5.03;100.00
46394;BME280;32099;53.588;10.176;2024-02-14T03:15:39;101090.81;;;5.01;99.97
46394;BME280;32099;53.588;10.176;2024-02-14T03:18:08;101089.81;;;5.02;99.51
46394;BME280;32099;53.588;10.176;2024-02-14T03:20:34;101090.81;;;5.01;100.00
46394;BME280;32099;53.588;10.176;2024-02-14T03:23:00;101090.81;;;5.01;100.00
46394;BME280;32099;53.588;10.176;2024-02-14T03:25:29;101086.13;;;5.03;99.87
46394;BME280;32099;53.588;10.176;2024-02-14T03:27:57;101089.66;;;5.04;99.74
46394;BME280;32099;53.588;10.176;2024-02-14T03:30:26;101091.63;;;5.02;100.00
46394;BME280;32099;53.588;10.176;2024-02-14T03:32:52;101087.09;;;5.02;100.00
46394;BME280;32099;53.588;10.176;2024-02-14T03:35:21;101085.81;;;5.06;99.97
46394;BME280;32099;53.588;10.176;2024-02-14T03:37:48;101083.25;;;5.05;100.00
46394;BME280;32099;53.588;10.176;2024-02-14T03:40:15;101074.88;;;5.08;99.68
46394;BME280;32099;53.588;10.176;2024-02-14T03:42:44;101066.63;;;5.09;100.00
46394;BME280;32099;53.588;10.176;2024-02-14T03:45:10;101064.66;;;5.12;99.95
46394;BME280;32099;53.588;10.176;2024-02-14T03:47:41;101058.25;;;5.13;99.83
46394;BME280;32099;53.588;10.176;2024-02-14T03:50:09;101060.38;;;5.09;100.00
46394;BME280;32099;53.588;10.176;2024-02-14T03:52:42;101054.25;;;5.07;100.00
46394;BME280;32099;53.588;10.176;2024-02-14T03:55:12;101058.66;;;5.08;100.00
46394;BME280;32099;53.588;10.176;2024-02-14T03:57:46;101054.41;;;5.05;100.00
46394;BME280;32099;53.588;10.176;2024-02-14T04:00:12;101058.66;;;5.08;100.00
46394;BME280;32099;53.588;10.176;2024-02-14T04:02:43;101051.53;;;5.07;100.00
46394;BME280;32099;53.588;10.176;2024-02-14T04:05:10;101052.69;;;5.04;100.00
46394;BME280;32099;53.588;10.176;2024-02-14T04:07:37;101042.88;;;5.03;100.00
46394;BME280;32099;53.588;10.176;2024-02-14T04:10:04;101046.28;;;5.05;100.00
46394;BME280;32099;53.588;10.176;2024-02-14T04:12:36;101047.84;;;5.08;100.00
46394;BME280;32099;53.588;10.176;2024-02-14T04:15:09;101046.97;;;5.07;100.00
46394;BME280;32099;53.588;10.176;2024-02-14T04:17:39;101046.97;;;5.07;100.00
46394;BME280;32099;53.588;10.176;2024-02-14T04:20:09;101040.59;;;5.08;100.00
46394;BME280;32099;53.588;10.176;2024-02-14T04:22:38;101036.03;;;5.09;100.00
46394;BME280;32099;53.588;10.176;2024-02-14T04:25:09;101033.03;;;5.12;100.00
46394;BME280;32099;53.588;10.176;2024-02-14T04:27:35;101035.06;;;5.10;100.00
46394;BME280;32099;53.588;10.176;2024-02-14T04:30:06;101031.38;;;5.11;100.00
46394;BME280;32099;53.588;10.176;2024-02-14T04:32:36;101030.50;;;5.10;100.00
46394;BME280;32099;53.588;10.176;2024-02-14T04:35:05;101024.94;;;5.12;100.00
46394;BME280;32099;53.588;10.176;2024-02-14T04:37:40;101025.97;;;5.11;100.00
46394;BME280;32099;53.588;10.176;2024-02-14T04:40:10;101030.63;;;5.09;100.00
46394;BME280;32099;53.588;10.176;2024-02-14T04:42:40;101021.97;;;5.05;100.00
46394;BME280;32099;53.588;10.176;2024-02-14T04:45:07;101018.53;;;5.03;100.00
46394;BME280;32099;53.588;10.176;2024-02-14T04:47:34;101024.78;;;5.04;100.00
46394;BME280;32099;53.588;10.176;2024-02-14T04:50:04;101012.97;;;5.05;100.00
46394;BME280;32099;53.588;10.176;2024-02-14T04:52:35;101012.00;;;5.06;100.00
46394;BME280;32099;53.588;10.176;2024-02-14T04:55:01;101005.75;;;5.05;100.00
46394;BME280;32099;53.588;10.176;2024-02-14T04:57:27;101015.53;;;5.06;100.00
46394;BME280;32099;53.588;10.176;2024-02-14T04:59:53;101005.44;;;5.08;100.00
46394;BME280;32099;53.588;10.176;2024-02-14T05:02:22;101007.03;;;5.11;100.00
46394;BME280;32099;53.588;10.176;2024-02-14T05:04:50;100998.91;;;5.11;100.00
46394;BME280;32099;53.588;10.176;2024-02-14T05:07:16;100999.75;;;5.12;100.00
46394;BME280;32099;53.588;10.176;2024-02-14T05:09:49;101006.00;;;5.12;100.00
46394;BME280;32099;53.588;10.176;2024-02-14T05:12:17;100999.59;;;5.13;100.00
46394;BME280;32099;53.588;10.176;2024-02-14T05:14:43;101000.47;;;5.14;100.00
46394;BME280;32099;53.588;10.176;2024-02-14T05:17:12;100983.38;;;5.13;100.00
46394;BME280;32099;53.588;10.176;2024-02-14T05:19:38;100982.41;;;5.14;100.00
46394;BME280;32099;53.588;10.176;2024-02-14T05:22:07;100986.81;;;5.15;100.00
46394;BME280;32099;53.588;10.176;2024-02-14T05:24:36;100984.66;;;5.19;100.00
46394;BME280;32099;53.588;10.176;2024-02-14T05:27:07;100983.69;;;5.20;100.00
46394;BME280;32099;53.588;10.176;2024-02-14T05:29:34;100979.84;;;5.22;100.00
46394;BME280;32099;53.588;10.176;2024-02-14T05:32:03;100916.41;;;4.87;100.00
46394;BME280;32099;53.588;10.176;2024-02-14T05:34:34;100982.13;;;5.27;100.00
46394;BME280;32099;53.588;10.176;2024-02-14T05:37:02;100975.72;;;5.28;100.00
46394;BME280;32099;53.588;10.176;2024-02-14T05:39:30;100977.28;;;5.31;100.00
46394;BME280;32099;53.588;10.176;2024-02-14T05:41:59;100979.13;;;5.30;100.00
46394;BME280;32099;53.588;10.176;2024-02-14T05:44:28;100979.00;;;5.32;100.00
46394;BME280;32099;53.588;10.176;2024-02-14T05:49:39;100972.72;;;5.31;100.00
46394;BME280;32099;53.588;10.176;2024-02-14T05:52:05;100978.00;;;5.33;100.00
46394;BME280;32099;53.588;10.176;2024-02-14T05:54:31;100982.81;;;5.39;100.00
46394;BME280;32099;53.588;10.176;2024-02-14T05:56:58;100974.59;;;5.40;100.00
46394;BME280;32099;53.588;10.176;2024-02-14T05:59:24;100978.97;;;5.41;100.00
46394;BME280;32099;53.588;10.176;2024-02-14T06:01:53;100972.56;;;5.43;100.00
46394;BME280;32099;53.588;10.176;2024-02-14T06:04:21;100970.44;;;5.46;100.00
46394;BME280;32099;53.588;10.176;2024-02-14T06:06:47;100971.28;;;5.47;100.00
46394;BME280;32099;53.588;10.176;2024-02-14T06:09:15;100965.03;;;5.46;100.00
46394;BME280;32099;53.588;10.176;2024-02-14T06:11:42;100965.31;;;5.43;100.00
46394;BME280;32099;53.588;10.176;2024-02-14T06:14:12;100960.63;;;5.45;100.00
46394;BME280;32099;53.588;10.176;2024-02-14T06:16:40;100965.59;;;5.50;100.00
46394;BME280;32099;53.588;10.176;2024-02-14T06:19:09;100959.03;;;5.52;100.00
46394;BME280;32099;53.588;10.176;2024-02-14T06:21:39;100961.59;;;5.54;100.00
46394;BME280;32099;53.588;10.176;2024-02-14T06:24:05;100959.75;;;5.54;100.00
46394;BME280;32099;53.588;10.176;2024-02-14T06:26:32;100966.00;;;5.55;100.00
46394;BME280;32099;53.588;10.176;2024-02-14T06:28:58;100953.47;;;5.54;100.00
46394;BME280;32099;53.588;10.176;2024-02-14T06:31:24;100951.91;;;5.51;100.00
46394;BME280;32099;53.588;10.176;2024-02-14T06:33:52;100951.91;;;5.51;100.00
46394;BME280;32099;53.588;10.176;2024-02-14T06:36:21;100958.88;;;5.54;100.00
46394;BME280;32099;53.588;10.176;2024-02-14T06:38:49;100961.16;;;5.59;100.00
46394;BME280;32099;53.588;10.176;2024-02-14T06:41:18;100957.59;;;5.58;100.00
46394;BME280;32099;53.588;10.176;2024-02-14T06:43:46;100963.56;;;5.62;100.00
46394;BME280;32099;53.588;10.176;2024-02-14T06:46:14;100954.47;;;5.63;100.00
46394;BME280;32099;53.588;10.176;2024-02-14T06:48:41;100960.44;;;5.66;100.00
46394;BME280;32099;53.588;10.176;2024-02-14T06:51:07;100963.00;;;5.68;100.00
46394;BME280;32099;53.588;10.176;2024-02-14T06:53:36;100962.00;;;5.69;100.00
46394;BME280;32099;53.588;10.176;2024-02-14T06:56:04;100958.28;;;5.70;100.00
46394;BME280;32099;53.588;10.176;2024-02-14T06:58:34;100956.16;;;5.74;100.00
46394;BME280;32099;53.588;10.176;2024-02-14T07:01:03;100956.72;;;5.77;100.00
46394;BME280;32099;53.588;10.176;2024-02-14T07:03:30;100957.56;;;5.78;100.00
46394;BME280;32099;53.588;10.176;2024-02-14T07:05:57;100958.56;;;5.77;100.00
46394;BME280;32099;53.588;10.176;2024-02-14T07:08:25;100954.28;;;5.74;100.00
46394;BME280;32099;53.588;10.176;2024-02-14T07:10:54;100964.13;;;5.75;100.00
46394;BME280;32099;53.588;10.176;2024-02-14T07:13:20;100950.44;;;5.77;100.00
46394;BME280;32099;53.588;10.176;2024-02-14T07:15:46;100955.00;;;5.76;100.00
46394;BME280;32099;53.588;10.176;2024-02-14T07:18:15;100953.13;;;5.77;100.00
46394;BME280;32099;53.588;10.176;2024-02-14T07:20:41;100955.56;;;5.80;100.00
46394;BME280;32099;53.588;10.176;2024-02-14T07:23:06;100958.81;;;5.83;100.00
46394;BME280;32099;53.588;10.176;2024-02-14T07:25:32;100957.69;;;5.86;100.00
46394;BME280;32099;53.588;10.176;2024-02-14T07:28:00;100962.66;;;5.91;100.00
46394;BME280;32099;53.588;10.176;2024-02-14T07:30:26;100956.09;;;5.93;100.00
46394;BME280;32099;53.588;10.176;2024-02-14T07:32:52;100962.22;;;5.95;100.00
46394;BME280;32099;53.588;10.176;2024-02-14T07:35:17;100958.50;;;5.96;100.00
46394;BME280;32099;53.588;10.176;2024-02-14T07:37:43;100963.94;;;5.96;100.00
46394;BME280;32099;53.588;10.176;2024-02-14T07:40:09;100967.47;;;5.97;100.00
46394;BME280;32099;53.588;10.176;2024-02-14T07:42:36;100962.94;;;5.97;100.00
46394;BME280;32099;53.588;10.176;2024-02-14T07:45:04;100960.94;;;5.99;100.00
46394;BME280;32099;53.588;10.176;2024-02-14T07:47:30;100960.50;;;6.04;100.00
46394;BME280;32099;53.588;10.176;2024-02-14T07:49:56;100954.06;;;6.05;100.00
46394;BME280;32099;53.588;10.176;2024-02-14T07:52:22;100952.25;;;6.06;100.00
46394;BME280;32099;53.588;10.176;2024-02-14T07:54:51;100958.50;;;6.06;100.00
46394;BME280;32099;53.588;10.176;2024-02-14T07:57:17;100954.78;;;6.07;100.00
46394;BME280;32099;53.588;10.176;2024-02-14T07:59:42;100947.53;;;6.08;100.00
46394;BME280;32099;53.588;10.176;2024-02-14T08:02:11;100950.09;;;6.09;100.00
46394;BME280;32099;53.588;10.176;2024-02-14T08:04:36;100949.63;;;6.14;100.00
46394;BME280;32099;53.588;10.176;2024-02-14T08:07:02;100951.34;;;6.15;100.00
46394;BME280;32099;53.588;10.176;2024-02-14T08:09:29;100945.75;;;6.16;100.00
46394;BME280;32099;53.588;10.176;2024-02-14T08:11:54;100951.75;;;6.20;100.00
46394;BME280;32099;53.588;10.176;2024-02-14T08:14:20;100944.31;;;6.22;100.00
46394;BME280;32099;53.588;10.176;2024-02-14T08:16:46;100938.78;;;6.24;100.00
46394;BME280;32099;53.588;10.176;2024-02-14T08:19:14;100937.59;;;6.26;100.00
46394;BME280;32099;53.588;10.176;2024-02-14T08:21:40;100942.28;;;6.34;100.00
46394;BME280;32099;53.588;10.176;2024-02-14T08:24:05;100932.16;;;6.36;100.00
46394;BME280;32099;53.588;10.176;2024-02-14T08:26:31;100942.66;;;6.39;100.00
46394;BME280;32099;53.588;10.176;2024-02-14T08:28:57;100937.94;;;6.41;100.00
46394;BME280;32099;53.588;10.176;2024-02-14T08:31:22;100942.06;;;6.45;100.00
46394;BME280;32099;53.588;10.176;2024-02-14T08:33:48;100946.19;;;6.50;100.00
46394;BME280;32099;53.588;10.176;2024-02-14T08:36:17;100938.44;;;6.55;100.00
46394;BME280;32099;53.588;10.176;2024-02-14T08:38:42;100945.28;;;6.59;100.00
46394;BME280;32099;53.588;10.176;2024-02-14T08:41:08;100940.41;;;6.62;100.00
46394;BME280;32099;53.588;10.176;2024-02-14T08:43:34;100948.78;;;6.69;100.00
46394;BME280;32099;53.588;10.176;2024-02-14T08:45:59;100938.31;;;6.74;100.00
46394;BME280;32099;53.588;10.176;2024-02-14T08:48:25;100934.59;;;6.75;100.00
46394;BME280;32099;53.588;10.176;2024-02-14T08:50:50;100942.91;;;6.74;100.00
46394;BME280;32099;53.588;10.176;2024-02-14T08:53:19;100944.44;;;6.76;100.00
46394;BME280;32099;53.588;10.176;2024-02-14T08:55:44;100898.56;;;6.47;100.00
46394;BME280;32099;53.588;10.176;2024-02-14T08:58:10;100945.16;;;6.78;100.00
46394;BME280;32099;53.588;10.176;2024-02-14T09:00:36;100945.97;;;6.79;100.00
46394;BME280;32099;53.588;10.176;2024-02-14T09:03:02;100947.41;;;6.83;100.00
46394;BME280;32099;53.588;10.176;2024-02-14T09:05:28;100893.94;;;6.57;100.00
46394;BME280;32099;53.588;10.176;2024-02-14T09:07:54;100885.97;;;6.56;100.00
46394;BME280;32099;53.588;10.176;2024-02-14T09:10:22;100953.28;;;6.97;100.00
46394;BME280;32099;53.588;10.176;2024-02-14T09:12:48;100945.69;;;7.00;100.00
46394;BME280;32099;53.588;10.176;2024-02-14T09:15:14;100950.13;;;7.01;100.00
46394;BME280;32099;53.588;10.176;2024-02-14T09:17:40;100944.53;;;7.03;100.00
46394;BME280;32099;53.588;10.176;2024-02-14T09:20:06;100945.22;;;7.05;100.00
46394;BME280;32099;53.588;10.176;2024-02-14T09:22:34;100947.47;;;7.09;100.00
46394;BME280;32099;53.588;10.176;2024-02-14T09:25:00;100947.88;;;7.15;100.00
46394;BME280;32099;53.588;10.176;2024-02-14T09:27:28;100949.28;;;7.19;100.00
46394;BME280;32099;53.588;10.176;2024-02-14T09:29:54;100946.94;;;7.24;100.00
46394;BME280;32099;53.588;10.176;2024-02-14T09:32:19;100943.59;;;7.30;100.00
46394;BME280;32099;53.588;10.176;2024-02-14T09:34:45;100945.50;;;7.38;100.00
46394;BME280;32099;53.588;10.176;2024-02-14T09:37:11;100949.44;;;7.44;100.00
46394;BME280;32099;53.588;10.176;2024-02-14T09:39:36;100951.16;;;7.45;100.00
46394;BME280;32099;53.588;10.176;2024-02-14T09:42:02;100949.16;;;7.47;100.00
46394;BME280;32099;53.588;10.176;2024-02-14T09:44:36;100947.13;;;7.49;100.00
46394;BME280;32099;53.588;10.176;2024-02-14T09:47:02;100948.84;;;7.50;100.00
46394;BME280;32099;53.588;10.176;2024-02-14T09:49:30;100950.91;;;7.56;100.00
46394;BME280;32099;53.588;10.176;2024-02-14T09:51:57;100948.59;;;7.61;100.00
46394;BME280;32099;53.588;10.176;2024-02-14T09:54:26;100946.41;;;7.65;100.00
46394;BME280;32099;53.588;10.176;2024-02-14T09:56:52;100950.16;;;7.72;100.00
46394;BME280;32099;53.588;10.176;2024-02-14T09:59:18;100953.28;;;7.77;100.00
46394;BME280;32099;53.588;10.176;2024-02-14T10:01:47;100954.50;;;7.83;100.00
46394;BME280;32099;53.588;10.176;2024-02-14T10:04:13;100947.56;;;7.88;100.00
46394;BME280;32099;53.588;10.176;2024-02-14T10:06:38;100956.09;;;7.94;100.00
46394;BME280;32099;53.588;10.176;2024-02-14T10:09:04;100947.59;;;7.97;100.00
46394;BME280;32099;53.588;10.176;2024-02-14T10:11:30;100953.44;;;8.02;100.00
46394;BME280;32099;53.588;10.176;2024-02-14T10:13:56;100955.47;;;8.08;100.00
46394;BME280;32099;53.588;10.176;2024-02-14T10:16:21;100956.88;;;8.12;100.00
46394;BME280;32099;53.588;10.176;2024-02-14T10:18:49;100955.69;;;8.15;100.00
46394;BME280;32099;53.588;10.176;2024-02-14T10:21:16;100963.34;;;8.19;100.00
46394;BME280;32099;53.588;10.176;2024-02-14T10:23:42;100958.28;;;8.25;100.00
46394;BME280;32099;53.588;10.176;2024-02-14T10:26:07;100962.53;;;8.27;100.00
46394;BME280;32099;53.588;10.176;2024-02-14T10:28:33;100962.75;;;8.34;100.00
46394;BME280;32099;53.588;10.176;2024-02-14T10:30:59;100964.28;;;8.37;100.00
46394;BME280;32099;53.588;10.176;2024-02-14T10:33:27;100964.66;;;8.42;100.00
46394;BME280;32099;53.588;10.176;2024-02-14T10:35:55;100970.59;;;8.45;100.00
46394;BME280;32099;53.588;10.176;2024-02-14T10:38:22;100978.28;;;8.50;100.00
46394;BME280;32099;53.588;10.176;2024-02-14T10:40:49;100976.97;;;8.54;100.00
46394;BME280;32099;53.588;10.176;2024-02-14T10:43:15;100975.59;;;8.58;100.00
46394;BME280;32099;53.588;10.176;2024-02-14T10:45:41;100966.09;;;8.62;100.00
46394;BME280;32099;53.588;10.176;2024-02-14T10:48:07;100974.63;;;8.68;100.00
46394;BME280;32099;53.588;10.176;2024-02-14T10:50:37;100969.53;;;8.73;100.00
46394;BME280;32099;53.588;10.176;2024-02-14T10:53:11;100971.59;;;8.79;100.00
46394;BME280;32099;53.588;10.176;2024-02-14T10:55:38;100969.22;;;8.84;100.00
46394;BME280;32099;53.588;10.176;2024-02-14T10:58:06;100962.91;;;8.75;100.00
46394;BME280;32099;53.588;10.176;2024-02-14T11:00:33;100974.69;;;8.92;100.00
46394;BME280;32099;53.588;10.176;2024-02-14T11:02:59;100973.34;;;8.97;100.00
46394;BME280;32099;53.588;10.176;2024-02-14T11:05:25;100980.16;;;9.01;100.00
46394;BME280;32099;53.588;10.176;2024-02-14T11:07:50;100974.22;;;9.05;100.00
46394;BME280;32099;53.588;10.176;2024-02-14T11:10:20;100981.69;;;9.11;100.00
46394;BME280;32099;53.588;10.176;2024-02-14T11:12:46;100972.00;;;9.17;100.00
46394;BME280;32099;53.588;10.176;2024-02-14T11:15:16;100979.66;;;9.22;100.00
46394;BME280;32099;53.588;10.176;2024-02-14T11:17:42;100970.16;;;9.26;100.00
46394;BME280;32099;53.588;10.176;2024-02-14T11:20:13;100977.97;;;9.29;100.00
46394;BME280;32099;53.588;10.176;2024-02-14T11:22:49;100969.47;;;9.32;100.00
46394;BME280;32099;53.588;10.176;2024-02-14T11:25:20;100976.09;;;9.38;100.00
46394;BME280;32099;53.588;10.176;2024-02-14T11:27:47;100977.66;;;9.40;100.00
46394;BME280;32099;53.588;10.176;2024-02-14T11:30:13;100974.41;;;9.45;100.00
46394;BME280;32099;53.588;10.176;2024-02-14T11:32:39;100980.03;;;9.52;100.00
46394;BME280;32099;53.588;10.176;2024-02-14T11:35:05;100978.66;;;9.56;100.00
46394;BME280;32099;53.588;10.176;2024-02-14T11:37:31;100988.00;;;9.62;100.00
46394;BME280;32099;53.588;10.176;2024-02-14T11:39:56;100988.34;;;9.67;100.00
46394;BME280;32099;53.588;10.176;2024-02-14T11:42:25;100981.56;;;9.71;100.00
46394;BME280;32099;53.588;10.176;2024-02-14T11:44:50;100982.06;;;9.75;100.00
46394;BME280;32099;53.588;10.176;2024-02-14T11:47:16;100985.28;;;9.78;100.00
46394;BME280;32099;53.588;10.176;2024-02-14T11:49:42;100986.47;;;9.84;100.00
46394;BME280;32099;53.588;10.176;2024-02-14T11:52:09;100987.66;;;9.90;100.00
46394;BME280;32099;53.588;10.176;2024-02-14T11:54:35;100988.81;;;9.95;100.00
46394;BME280;32099;53.588;10.176;2024-02-14T11:57:00;100993.56;;;10.01;100.00
46394;BME280;32099;53.588;10.176;2024-02-14T11:59:29;100988.47;;;10.07;100.00
46394;BME280;32099;53.588;10.176;2024-02-14T12:01:54;100996.97;;;10.12;100.00
46394;BME280;32099;53.588;10.176;2024-02-14T12:04:20;100991.00;;;10.16;100.00
46394;BME280;32099;53.588;10.176;2024-02-14T12:06:46;100992.53;;;10.19;100.00
46394;BME280;32099;53.588;10.176;2024-02-14T12:09:12;100994.72;;;10.24;100.00
46394;BME280;32099;53.588;10.176;2024-02-14T12:11:39;100997.09;;;10.27;100.00
46394;BME280;32099;53.588;10.176;2024-02-14T12:14:06;101002.19;;;10.30;100.00
46394;BME280;32099;53.588;10.176;2024-02-14T12:16:36;101010.22;;;10.31;100.00
46394;BME280;32099;53.588;10.176;2024-02-14T12:19:05;101012.75;;;10.33;100.00
46394;BME280;32099;53.588;10.176;2024-02-14T12:21:33;101017.19;;;10.34;100.00
46394;BME280;32099;53.588;10.176;2024-02-14T12:23:59;101008.16;;;10.33;100.00
46394;BME280;32099;53.588;10.176;2024-02-14T12:26:25;101015.97;;;10.37;100.00
46394;BME280;32099;53.588;10.176;2024-02-14T12:28:51;101010.50;;;10.37;100.00
46394;BME280;32099;53.588;10.176;2024-02-14T12:31:23;101011.53;;;10.35;100.00
46394;BME280;32099;53.588;10.176;2024-02-14T12:33:52;101005.25;;;10.35;100.00
46394;BME280;32099;53.588;10.176;2024-02-14T12:36:18;101008.66;;;10.37;100.00
46394;BME280;32099;53.588;10.176;2024-02-14T12:38:44;101005.44;;;10.42;100.00
46394;BME280;32099;53.588;10.176;2024-02-14T12:41:10;101008.84;;;10.44;100.00
46394;BME280;32099;53.588;10.176;2024-02-14T12:43:35;101008.47;;;10.47;100.00
46394;BME280;32099;53.588;10.176;2024-02-14T12:46:01;101017.16;;;10.51;100.00